createdAt,value
2023-03-10T00:00:46.513Z,12.29
2023-03-10T00:01:46.497Z,12.28
2023-03-10T00:02:46.509Z,12.46
2023-03-10T00:03:46.552Z,12.33
2023-03-10T00:04:46.558Z,12.32
2023-03-10T00:05:46.612Z,12.25
2023-03-10T00:06:46.473Z,12.22
2023-03-10T00:07:46.469Z,12.21
2023-03-10T00:08:46.461Z,12.21
2023-03-10T00:09:46.454Z,12.21
2023-03-10T00:10:46.454Z,12.21
2023-03-10T00:11:46.440Z,12.29
2023-03-10T00:12:46.430Z,12.35
2023-03-10T00:13:46.432Z,12.40
2023-03-10T00:14:46.429Z,12.43
2023-03-10T00:15:46.462Z,12.38
2023-03-10T00:16:46.402Z,12.48
2023-03-10T00:17:46.400Z,12.55
2023-03-10T00:18:46.488Z,12.50
2023-03-10T00:19:46.389Z,12.50
2023-03-10T00:20:46.383Z,12.43
2023-03-10T00:21:46.381Z,12.59
2023-03-10T00:22:46.369Z,12.59
2023-03-10T00:23:46.365Z,12.68
2023-03-10T00:24:46.351Z,12.77
2023-03-10T00:25:46.365Z,12.79
2023-03-10T00:26:46.345Z,12.81
2023-03-10T00:27:46.348Z,12.83
2023-03-10T00:28:46.330Z,12.86
2023-03-10T00:29:46.329Z,12.76
2023-03-10T00:30:46.373Z,12.76
2023-03-10T00:31:46.324Z,12.77
2023-03-10T00:32:46.342Z,12.76
2023-03-10T00:33:46.320Z,12.79
2023-03-10T00:34:46.299Z,12.83
2023-03-10T00:35:46.387Z,12.87
2023-03-10T00:36:46.289Z,12.91
2023-03-10T00:37:46.276Z,12.87
2023-03-10T00:38:46.272Z,12.91
2023-03-10T00:39:46.275Z,12.87
2023-03-10T00:40:46.264Z,12.86
2023-03-10T00:41:46.250Z,12.83
2023-03-10T00:42:46.262Z,12.77
2023-03-10T00:43:46.254Z,12.86
2023-03-10T00:44:46.247Z,12.80
2023-03-10T00:45:46.230Z,12.76
2023-03-10T00:46:46.286Z,12.77
2023-03-10T00:47:46.216Z,12.73
2023-03-10T00:48:46.212Z,12.88
2023-03-10T00:49:46.211Z,12.91
2023-03-10T00:50:46.197Z,12.84
2023-03-10T00:51:46.190Z,12.83
2023-03-10T00:52:46.186Z,12.91
2023-03-10T00:53:46.183Z,12.86
2023-03-10T00:54:46.169Z,12.79
2023-03-10T00:55:46.162Z,12.80
2023-03-10T00:56:46.161Z,12.73
2023-03-10T00:57:46.156Z,12.80
2023-03-10T00:58:46.148Z,12.76
2023-03-10T00:59:50.569Z,12.80
2023-03-10T01:00:46.131Z,12.77
2023-03-10T01:01:46.187Z,12.73
2023-03-10T01:02:46.140Z,12.80
2023-03-10T01:03:46.115Z,12.72
2023-03-10T01:04:46.246Z,12.80
2023-03-10T01:05:46.101Z,12.76
2023-03-10T01:06:46.102Z,12.76
2023-03-10T01:07:46.089Z,12.76
2023-03-10T01:08:46.093Z,12.72
2023-03-10T01:09:46.077Z,12.71
2023-03-10T01:10:46.071Z,12.81
2023-03-10T01:11:46.063Z,12.86
2023-03-10T01:12:46.059Z,12.84
2023-03-10T01:13:46.060Z,12.76
2023-03-10T01:14:46.053Z,12.80
2023-03-10T01:15:46.095Z,12.73
2023-03-10T01:16:46.041Z,12.76
2023-03-10T01:17:46.026Z,12.83
2023-03-10T01:18:46.028Z,12.77
2023-03-10T01:19:46.015Z,12.80
2023-03-10T01:20:46.005Z,12.77
2023-03-10T01:21:46.018Z,12.73
2023-03-10T01:22:45.989Z,12.77
2023-03-10T01:23:45.997Z,12.77
2023-03-10T01:24:45.989Z,12.76
2023-03-10T01:25:45.985Z,12.76
2023-03-10T01:26:45.962Z,12.73
2023-03-10T01:27:45.966Z,12.73
2023-03-10T01:28:45.959Z,12.72
2023-03-10T01:29:45.957Z,12.71
2023-03-10T01:30:45.946Z,12.71
2023-03-10T01:31:45.970Z,12.80
2023-03-10T01:32:46.034Z,12.71
2023-03-10T01:33:45.935Z,12.79
2023-03-10T01:34:45.933Z,12.73
2023-03-10T01:35:45.962Z,12.68
2023-03-10T01:36:45.907Z,12.73
2023-03-10T01:37:45.898Z,12.71
2023-03-10T01:38:45.899Z,12.62
2023-03-10T01:39:45.897Z,12.68
2023-03-10T01:40:45.882Z,12.66
2023-03-10T01:41:45.886Z,12.62
2023-03-10T01:42:45.860Z,12.66
2023-03-10T01:43:45.870Z,12.66
2023-03-10T01:44:45.858Z,12.79
2023-03-10T01:45:45.850Z,12.66
2023-03-10T01:46:45.869Z,12.68
2023-03-10T01:47:45.838Z,12.66
2023-03-10T01:48:45.830Z,12.68
2023-03-10T01:49:45.821Z,12.61
2023-03-10T01:50:45.818Z,12.53
2023-03-10T01:51:45.822Z,12.54
2023-03-10T01:52:45.804Z,12.59
2023-03-10T01:53:45.795Z,12.54
2023-03-10T01:54:45.791Z,12.54
2023-03-10T01:55:45.789Z,12.55
2023-03-10T01:56:45.784Z,12.59
2023-03-10T01:57:45.774Z,12.58
2023-03-10T01:58:45.766Z,12.59
2023-03-10T01:59:45.766Z,12.50
2023-03-10T02:00:45.824Z,12.59
2023-03-10T02:01:45.777Z,12.50
2023-03-10T02:02:45.760Z,12.59
2023-03-10T02:03:45.733Z,12.53
2023-03-10T02:04:45.728Z,12.48
2023-03-10T02:05:45.726Z,12.47
2023-03-10T02:06:45.725Z,12.47
2023-03-10T02:07:45.712Z,12.50
2023-03-10T02:08:45.702Z,12.41
2023-03-10T02:09:45.703Z,12.44
2023-03-10T02:10:45.697Z,12.43
2023-03-10T02:11:45.690Z,12.44
2023-03-10T02:12:45.694Z,12.38
2023-03-10T02:13:45.667Z,12.36
2023-03-10T02:14:45.677Z,12.33
2023-03-10T02:15:45.678Z,12.23
2023-03-10T02:16:45.746Z,12.25
2023-03-10T02:17:45.665Z,12.30
2023-03-10T02:18:45.645Z,12.22
2023-03-10T02:19:45.644Z,12.15
2023-03-10T02:20:45.637Z,12.29
2023-03-10T02:21:45.646Z,12.17
2023-03-10T02:22:45.625Z,12.11
2023-03-10T02:23:58.802Z,12.14
2023-03-10T02:24:45.618Z,12.18
2023-03-10T02:25:45.605Z,12.13
2023-03-10T02:26:45.598Z,12.14
2023-03-10T02:27:45.708Z,12.21
2023-03-10T02:28:45.601Z,12.23
2023-03-10T02:29:58.504Z,12.21
2023-03-10T02:30:45.579Z,12.28
2023-03-10T02:31:45.577Z,12.11
2023-03-10T02:32:45.613Z,12.11
2023-03-10T02:33:45.559Z,12.17
2023-03-10T02:34:45.556Z,12.21
2023-03-10T02:35:45.554Z,12.18
2023-03-10T02:36:45.544Z,12.26
2023-03-10T02:37:45.537Z,12.26
2023-03-10T02:38:45.552Z,12.14
2023-03-10T02:39:45.512Z,12.22
2023-03-10T02:40:45.526Z,12.17
2023-03-10T02:41:45.817Z,12.18
2023-03-10T02:42:45.511Z,12.17
2023-03-10T02:43:45.501Z,12.26
2023-03-10T02:44:45.504Z,12.14
2023-03-10T02:45:45.519Z,12.18
2023-03-10T02:46:45.480Z,12.21
2023-03-10T02:47:45.478Z,12.29
2023-03-10T02:48:45.469Z,12.23
2023-03-10T02:49:45.466Z,12.23
2023-03-10T02:50:45.529Z,12.15
2023-03-10T02:51:45.454Z,12.14
2023-03-10T02:52:45.449Z,12.13
2023-03-10T02:53:45.437Z,12.14
2023-03-10T02:54:45.423Z,12.11
2023-03-10T02:55:45.457Z,12.07
2023-03-10T02:56:45.429Z,12.05
2023-03-10T02:57:45.416Z,12.04
2023-03-10T02:58:45.405Z,12.05
2023-03-10T02:59:45.399Z,12.14
2023-03-10T03:00:45.413Z,12.18
2023-03-10T03:01:45.388Z,12.17
2023-03-10T03:02:45.385Z,12.11
2023-03-10T03:03:45.403Z,12.14
2023-03-10T03:04:45.374Z,12.04
2023-03-10T03:05:45.370Z,12.14
2023-03-10T03:06:45.360Z,12.11
2023-03-10T03:07:45.349Z,12.10
2023-03-10T03:08:45.344Z,12.11
2023-03-10T03:09:45.340Z,12.08
2023-03-10T03:10:45.344Z,12.05
2023-03-10T03:11:45.327Z,12.04
2023-03-10T03:12:45.335Z,11.89
2023-03-10T03:13:45.323Z,12.00
2023-03-10T03:14:45.302Z,12.00
2023-03-10T03:15:45.473Z,11.99
2023-03-10T03:16:45.303Z,11.95
2023-03-10T03:17:45.289Z,11.87
2023-03-10T03:18:45.278Z,11.87
2023-03-10T03:19:45.275Z,11.82
2023-03-10T03:20:45.268Z,11.96
2023-03-10T03:21:45.267Z,11.97
2023-03-10T03:22:45.250Z,11.97
2023-03-10T03:23:45.254Z,11.93
2023-03-10T03:24:45.241Z,11.99
2023-03-10T03:25:45.249Z,11.99
2023-03-10T03:26:45.227Z,11.99
2023-03-10T03:27:45.229Z,11.95
2023-03-10T03:28:45.222Z,12.03
2023-03-10T03:29:45.203Z,12.05
2023-03-10T03:30:45.210Z,12.04
2023-03-10T03:31:45.268Z,12.11
2023-03-10T03:32:45.234Z,12.10
2023-03-10T03:33:45.179Z,12.07
2023-03-10T03:34:45.181Z,12.04
2023-03-10T03:35:45.213Z,11.97
2023-03-10T03:36:45.164Z,12.00
2023-03-10T03:37:45.157Z,11.97
2023-03-10T03:38:45.168Z,11.99
2023-03-10T03:39:45.263Z,12.03
2023-03-10T03:40:45.153Z,11.85
2023-03-10T03:41:45.131Z,11.80
2023-03-10T03:42:45.131Z,11.85
2023-03-10T03:43:45.127Z,11.74
2023-03-10T03:44:45.127Z,11.77
2023-03-10T03:45:45.138Z,11.70
2023-03-10T03:46:45.101Z,11.69
2023-03-10T03:47:45.109Z,11.52
2023-03-10T03:48:45.112Z,11.55
2023-03-10T03:49:45.091Z,11.45
2023-03-10T03:50:45.081Z,11.45
2023-03-10T03:51:45.083Z,11.46
2023-03-10T03:52:45.071Z,11.38
2023-03-10T03:53:45.055Z,11.30
2023-03-10T03:54:45.057Z,11.40
2023-03-10T03:55:45.058Z,11.30
2023-03-10T03:56:45.038Z,11.28
2023-03-10T03:57:45.032Z,11.36
2023-03-10T03:58:45.035Z,11.40
2023-03-10T03:59:45.044Z,11.37
2023-03-10T04:00:45.024Z,11.52
2023-03-10T04:01:45.038Z,11.46
2023-03-10T04:02:45.092Z,11.52
2023-03-10T04:03:45.243Z,11.54
2023-03-10T04:04:44.997Z,11.51
2023-03-10T04:05:44.987Z,11.51
2023-03-10T04:06:44.994Z,11.43
2023-03-10T04:07:44.968Z,11.40
2023-03-10T04:08:44.963Z,11.34
2023-03-10T04:09:44.956Z,11.38
2023-03-10T04:10:44.953Z,11.36
2023-03-10T04:11:44.951Z,11.31
2023-03-10T04:12:44.942Z,11.41
2023-03-10T04:13:44.934Z,11.37
2023-03-10T04:14:44.936Z,11.36
2023-03-10T04:15:44.929Z,11.37
2023-03-10T04:16:44.908Z,11.36
2023-03-10T04:17:44.915Z,11.38
2023-03-10T04:18:44.912Z,11.49
2023-03-10T04:19:51.348Z,11.49
2023-03-10T04:20:44.893Z,11.51
2023-03-10T04:21:44.893Z,11.54
2023-03-10T04:22:44.886Z,11.54
2023-03-10T04:23:44.869Z,11.38
2023-03-10T04:24:44.866Z,11.43
2023-03-10T04:25:44.858Z,11.43
2023-03-10T04:26:44.856Z,11.51
2023-03-10T04:27:44.846Z,11.37
2023-03-10T04:28:44.845Z,11.48
2023-03-10T04:29:44.834Z,11.40
2023-03-10T04:30:44.869Z,11.40
2023-03-10T04:31:50.529Z,11.37
2023-03-10T04:32:47.221Z,11.28
2023-03-10T04:33:44.823Z,11.51
2023-03-10T04:34:44.801Z,11.62
2023-03-10T04:35:44.846Z,11.70
2023-03-10T04:36:44.791Z,11.66
2023-03-10T04:37:44.780Z,11.66
2023-03-10T04:38:44.774Z,11.67
2023-03-10T04:39:44.769Z,11.58
2023-03-10T04:40:44.758Z,11.64
2023-03-10T04:41:44.758Z,11.66
2023-03-10T04:42:44.780Z,11.62
2023-03-10T04:43:47.449Z,11.61
2023-03-10T04:44:44.733Z,11.61
2023-03-10T04:45:44.736Z,11.59
2023-03-10T04:46:44.731Z,11.66
2023-03-10T04:47:44.721Z,11.55
2023-03-10T04:48:44.707Z,11.66
2023-03-10T04:49:44.703Z,11.67
2023-03-10T04:50:44.694Z,11.67
2023-03-10T04:51:44.693Z,11.73
2023-03-10T04:52:44.687Z,11.66
2023-03-10T04:53:44.677Z,11.69
2023-03-10T04:54:44.675Z,11.67
2023-03-10T04:55:44.669Z,11.77
2023-03-10T04:56:44.660Z,11.73
2023-03-10T04:57:44.653Z,11.77
2023-03-10T04:58:44.648Z,11.77
2023-03-10T04:59:44.643Z,11.77
2023-03-10T05:01:00.274Z,11.76
2023-03-10T05:01:44.681Z,11.77
2023-03-10T05:02:44.623Z,11.80
2023-03-10T05:03:44.620Z,11.93
2023-03-10T05:04:44.771Z,11.84
2023-03-10T05:05:44.595Z,11.80
2023-03-10T05:06:44.600Z,11.89
2023-03-10T05:07:44.633Z,11.82
2023-03-10T05:08:44.582Z,11.84
2023-03-10T05:09:44.579Z,11.80
2023-03-10T05:10:44.583Z,11.79
2023-03-10T05:11:44.566Z,11.77
2023-03-10T05:12:44.556Z,11.79
2023-03-10T05:13:44.563Z,11.74
2023-03-10T05:14:44.544Z,11.76
2023-03-10T05:15:44.568Z,11.67
2023-03-10T05:16:44.553Z,11.70
2023-03-10T05:17:44.529Z,11.69
2023-03-10T05:18:44.562Z,11.71
2023-03-10T05:19:44.516Z,11.64
2023-03-10T05:20:44.531Z,11.66
2023-03-10T05:21:44.537Z,11.76
2023-03-10T05:22:44.490Z,11.82
2023-03-10T05:23:44.479Z,11.74
2023-03-10T05:24:44.473Z,11.76
2023-03-10T05:25:44.475Z,11.74
2023-03-10T05:26:44.469Z,11.80
2023-03-10T05:27:44.457Z,11.76
2023-03-10T05:28:44.456Z,11.77
2023-03-10T05:29:44.442Z,11.80
2023-03-10T05:30:44.434Z,11.79
2023-03-10T05:31:44.558Z,11.80
2023-03-10T05:32:44.548Z,11.64
2023-03-10T05:33:44.420Z,11.62
2023-03-10T05:34:44.414Z,11.59
2023-03-10T05:35:44.450Z,11.52
2023-03-10T05:36:44.404Z,11.56
2023-03-10T05:37:44.417Z,11.40
2023-03-10T05:38:44.401Z,11.41
2023-03-10T05:39:44.382Z,11.40
2023-03-10T05:40:44.371Z,11.45
2023-03-10T05:41:44.365Z,11.40
2023-03-10T05:42:44.362Z,11.41
2023-03-10T05:43:44.348Z,11.33
2023-03-10T05:44:44.345Z,11.37
2023-03-10T05:45:44.340Z,11.36
2023-03-10T05:46:44.348Z,11.43
2023-03-10T05:47:44.324Z,11.30
2023-03-10T05:48:44.319Z,11.43
2023-03-10T05:49:44.314Z,11.37
2023-03-10T05:50:44.308Z,11.41
2023-03-10T05:51:44.303Z,11.37
2023-03-10T05:52:44.292Z,11.33
2023-03-10T05:53:44.291Z,11.27
2023-03-10T05:54:44.282Z,11.30
2023-03-10T05:55:44.274Z,11.19
2023-03-10T05:56:44.262Z,11.18
2023-03-10T05:57:44.263Z,11.16
2023-03-10T05:58:44.254Z,11.16
2023-03-10T05:59:44.237Z,11.19
2023-03-10T06:00:44.242Z,11.22
2023-03-10T06:01:44.245Z,11.19
2023-03-10T06:02:44.273Z,11.15
2023-03-10T06:03:44.327Z,11.30
2023-03-10T06:04:44.232Z,11.27
2023-03-10T06:05:44.207Z,11.15
2023-03-10T06:06:44.201Z,11.05
2023-03-10T06:07:44.189Z,11.11
2023-03-10T06:08:44.184Z,10.97
2023-03-10T06:09:44.184Z,11.00
2023-03-10T06:10:44.182Z,10.97
2023-03-10T06:11:44.161Z,11.11
2023-03-10T06:12:44.178Z,11.05
2023-03-10T06:13:44.145Z,11.09
2023-03-10T06:14:44.183Z,11.13
2023-03-10T06:15:44.195Z,11.03
2023-03-10T06:16:44.147Z,11.04
2023-03-10T06:17:44.131Z,11.08
2023-03-10T06:18:44.118Z,11.11
2023-03-10T06:19:44.115Z,11.18
2023-03-10T06:20:44.100Z,11.16
2023-03-10T06:21:44.099Z,11.15
2023-03-10T06:22:44.096Z,11.22
2023-03-10T06:23:44.092Z,11.19
2023-03-10T06:24:44.085Z,11.19
2023-03-10T06:25:44.091Z,11.18
2023-03-10T06:26:44.082Z,11.30
2023-03-10T06:27:44.090Z,11.25
2023-03-10T06:28:44.067Z,11.27
2023-03-10T06:29:44.056Z,11.22
2023-03-10T06:30:44.040Z,11.19
2023-03-10T06:31:44.052Z,11.19
2023-03-10T06:32:44.088Z,11.22
2023-03-10T06:33:44.030Z,11.28
2023-03-10T06:34:44.017Z,11.23
2023-03-10T06:35:44.030Z,11.31
2023-03-10T06:36:44.008Z,11.25
2023-03-10T06:37:44.005Z,11.19
2023-03-10T06:38:43.988Z,11.28
2023-03-10T06:39:43.986Z,11.25
2023-03-10T06:40:43.999Z,11.27
2023-03-10T06:41:43.972Z,11.31
2023-03-10T06:42:43.968Z,11.31
2023-03-10T06:43:43.977Z,11.25
2023-03-10T06:44:43.952Z,11.23
2023-03-10T06:45:44.080Z,11.25
2023-03-10T06:46:43.932Z,11.25
2023-03-10T06:47:43.943Z,11.20
2023-03-10T06:48:43.924Z,11.20
2023-03-10T06:49:43.924Z,11.19
2023-03-10T06:50:43.919Z,11.19
2023-03-10T06:51:43.938Z,11.19
2023-03-10T06:52:43.901Z,11.16
2023-03-10T06:53:43.898Z,11.13
2023-03-10T06:54:43.889Z,11.27
2023-03-10T06:55:43.892Z,11.13
2023-03-10T06:56:43.877Z,11.15
2023-03-10T06:57:43.883Z,11.18
2023-03-10T06:58:43.866Z,11.09
2023-03-10T06:59:43.852Z,11.18
2023-03-10T07:00:43.894Z,11.16
2023-03-10T07:01:43.847Z,11.15
2023-03-10T07:02:43.836Z,11.25
2023-03-10T07:03:43.954Z,11.27
2023-03-10T07:04:43.847Z,11.18
2023-03-10T07:05:43.812Z,11.28
2023-03-10T07:06:43.813Z,11.27
2023-03-10T07:07:43.802Z,11.28
2023-03-10T07:08:43.795Z,11.37
2023-03-10T07:09:43.795Z,11.36
2023-03-10T07:10:43.785Z,11.45
2023-03-10T07:11:43.778Z,11.48
2023-03-10T07:12:43.779Z,11.54
2023-03-10T07:13:43.767Z,11.52
2023-03-10T07:14:43.760Z,11.51
2023-03-10T07:15:43.758Z,11.45
2023-03-10T07:16:43.835Z,11.52
2023-03-10T07:17:43.734Z,11.61
2023-03-10T07:18:43.726Z,11.56
2023-03-10T07:19:43.719Z,11.61
2023-03-10T07:20:43.717Z,11.64
2023-03-10T07:21:43.712Z,11.62
2023-03-10T07:22:43.704Z,11.61
2023-03-10T07:23:43.701Z,11.64
2023-03-10T07:24:43.687Z,11.71
2023-03-10T07:25:43.688Z,11.79
2023-03-10T07:26:43.676Z,11.76
2023-03-10T07:27:43.672Z,11.77
2023-03-10T07:28:43.658Z,11.74
2023-03-10T07:29:43.668Z,11.80
2023-03-10T07:30:43.757Z,11.82
2023-03-10T07:31:43.709Z,11.77
2023-03-10T07:32:43.763Z,11.87
2023-03-10T07:33:43.687Z,11.84
2023-03-10T07:34:43.648Z,11.82
2023-03-10T07:35:43.638Z,11.80
2023-03-10T07:36:43.696Z,11.84
2023-03-10T07:37:43.693Z,11.87
2023-03-10T07:38:43.603Z,11.80
2023-03-10T07:39:43.593Z,11.80
2023-03-10T07:40:43.613Z,11.97
2023-03-10T07:41:43.579Z,11.87
2023-03-10T07:42:43.582Z,11.87
2023-03-10T07:43:43.576Z,11.82
2023-03-10T07:44:43.568Z,11.82
2023-03-10T07:45:43.556Z,11.84
2023-03-10T07:46:43.547Z,11.84
2023-03-10T07:47:43.548Z,11.80
2023-03-10T07:48:43.549Z,11.96
2023-03-10T07:49:43.536Z,11.93
2023-03-10T07:50:43.563Z,12.00
2023-03-10T07:51:43.571Z,11.99
2023-03-10T07:52:43.514Z,12.05
2023-03-10T07:53:43.503Z,12.10
2023-03-10T07:54:43.507Z,12.07
2023-03-10T07:55:43.530Z,12.05
2023-03-10T07:56:43.484Z,12.00
2023-03-10T07:57:43.498Z,12.03
2023-03-10T07:58:43.486Z,12.15
2023-03-10T07:59:43.468Z,12.04
2023-03-10T08:00:43.465Z,12.14
2023-03-10T08:01:43.461Z,12.15
2023-03-10T08:02:43.451Z,12.17
2023-03-10T08:03:43.522Z,12.25
2023-03-10T08:04:43.546Z,12.17
2023-03-10T08:05:43.569Z,12.23
2023-03-10T08:06:43.434Z,12.25
2023-03-10T08:07:43.423Z,12.30
2023-03-10T08:08:43.422Z,12.35
2023-03-10T08:09:43.406Z,12.35
2023-03-10T08:10:43.407Z,12.41
2023-03-10T08:11:43.402Z,12.43
2023-03-10T08:12:43.404Z,12.48
2023-03-10T08:13:43.395Z,12.50
2023-03-10T08:14:43.379Z,12.48
2023-03-10T08:15:43.431Z,12.53
2023-03-10T08:16:43.374Z,12.68
2023-03-10T08:17:43.364Z,12.63
2023-03-10T08:18:43.351Z,12.66
2023-03-10T08:19:43.352Z,12.66
2023-03-10T08:20:43.343Z,12.65
2023-03-10T08:21:43.414Z,12.66
2023-03-10T08:22:43.360Z,12.68
2023-03-10T08:23:43.330Z,12.68
2023-03-10T08:24:43.331Z,12.63
2023-03-10T08:25:43.321Z,12.55
2023-03-10T08:26:43.306Z,12.62
2023-03-10T08:27:43.305Z,12.71
2023-03-10T08:28:43.295Z,12.59
2023-03-10T08:29:43.292Z,12.61
2023-03-10T08:30:57.298Z,12.65
2023-03-10T08:31:43.593Z,12.68
2023-03-10T08:32:43.774Z,12.61
2023-03-10T08:33:43.331Z,12.53
2023-03-10T08:34:43.264Z,12.59
2023-03-10T08:35:43.272Z,12.55
2023-03-10T08:36:43.249Z,12.48
2023-03-10T08:37:43.946Z,12.51
2023-03-10T08:38:43.235Z,12.59
2023-03-10T08:39:43.231Z,12.63
2023-03-10T08:40:43.222Z,12.65
2023-03-10T08:41:43.217Z,12.68
2023-03-10T08:42:43.224Z,12.77
2023-03-10T08:43:43.220Z,12.76
2023-03-10T08:44:43.205Z,12.72
2023-03-10T08:45:43.207Z,12.77
2023-03-10T08:46:46.296Z,12.73
2023-03-10T08:47:43.189Z,12.77
2023-03-10T08:48:43.262Z,12.80
2023-03-10T08:49:45.730Z,12.87
2023-03-10T08:50:43.169Z,12.83
2023-03-10T08:51:43.188Z,12.90
2023-03-10T08:52:43.159Z,12.86
2023-03-10T08:53:43.151Z,12.90
2023-03-10T08:54:43.153Z,12.93
2023-03-10T08:55:43.145Z,12.87
2023-03-10T08:56:43.146Z,12.87
2023-03-10T08:57:43.138Z,12.86
2023-03-10T08:58:43.128Z,12.88
2023-03-10T08:59:43.133Z,12.83
2023-03-10T09:00:43.124Z,12.88
2023-03-10T09:01:43.162Z,12.86
2023-03-10T09:02:43.141Z,12.79
2023-03-10T09:03:43.107Z,12.84
2023-03-10T09:04:43.133Z,12.79
2023-03-10T09:05:43.115Z,12.80
2023-03-10T09:06:43.074Z,12.79
2023-03-10T09:07:43.107Z,12.81
2023-03-10T09:08:43.109Z,12.88
2023-03-10T09:09:43.069Z,12.80
2023-03-10T09:10:43.105Z,12.88
2023-03-10T09:11:43.065Z,12.80
2023-03-10T09:12:43.106Z,12.91
2023-03-10T09:13:43.040Z,12.80
2023-03-10T09:14:43.058Z,12.77
2023-03-10T09:15:43.034Z,12.83
2023-03-10T09:16:43.107Z,12.84
2023-03-10T09:17:43.015Z,12.87
2023-03-10T09:18:43.000Z,12.93
2023-03-10T09:19:43.002Z,13.02
2023-03-10T09:20:42.998Z,13.05
2023-03-10T09:21:42.994Z,13.05
2023-03-10T09:22:42.990Z,13.06
2023-03-10T09:23:42.983Z,13.06
2023-03-10T09:24:42.993Z,13.16
2023-03-10T09:25:42.977Z,13.14
2023-03-10T09:26:44.826Z,13.21
2023-03-10T09:27:45.400Z,13.20
2023-03-10T09:28:42.954Z,13.36
2023-03-10T09:29:43.786Z,13.40
2023-03-10T09:30:42.939Z,13.29
2023-03-10T09:31:42.977Z,13.46
2023-03-10T09:32:42.963Z,13.42
2023-03-10T09:33:42.934Z,13.51
2023-03-10T09:34:42.930Z,13.54
2023-03-10T09:35:52.299Z,13.46
2023-03-10T09:36:42.910Z,13.46
2023-03-10T09:37:42.900Z,13.45
2023-03-10T09:38:42.900Z,13.53
2023-03-10T09:39:42.901Z,13.51
2023-03-10T09:40:42.898Z,13.63
2023-03-10T09:41:42.886Z,13.61
2023-03-10T09:42:42.879Z,13.76
2023-03-10T09:43:42.896Z,13.85
2023-03-10T09:44:42.876Z,13.91
2023-03-10T09:45:42.925Z,14.09
2023-03-10T09:46:42.865Z,14.09
2023-03-10T09:47:42.859Z,14.12
2023-03-10T09:48:42.852Z,14.21
2023-03-10T09:49:42.840Z,14.21
2023-03-10T09:50:42.840Z,14.22
2023-03-10T09:51:42.835Z,14.19
2023-03-10T09:52:42.876Z,14.28
2023-03-10T09:53:42.840Z,14.27
2023-03-10T09:54:42.824Z,14.34
2023-03-10T09:55:48.015Z,14.34
2023-03-10T09:56:42.819Z,14.41
2023-03-10T09:57:42.806Z,14.36
2023-03-10T09:58:42.807Z,14.19
2023-03-10T09:59:42.803Z,14.16
2023-03-10T10:00:42.805Z,13.94
2023-03-10T10:01:42.797Z,13.96
2023-03-10T10:02:42.785Z,13.97
2023-03-10T10:03:52.654Z,13.98
2023-03-10T10:04:42.825Z,13.98
2023-03-10T10:05:42.768Z,14.11
2023-03-10T10:06:42.772Z,14.16
2023-03-10T10:07:42.782Z,14.30
2023-03-10T10:08:45.020Z,14.33
2023-03-10T10:09:42.756Z,14.52
2023-03-10T10:10:42.752Z,14.87
2023-03-10T10:11:42.751Z,15.12
2023-03-10T10:12:42.741Z,15.32
2023-03-10T10:13:44.193Z,15.70
2023-03-10T10:14:55.019Z,15.69
2023-03-10T10:15:42.737Z,15.73
2023-03-10T10:16:42.786Z,15.80
2023-03-10T10:17:52.347Z,15.27
2023-03-10T10:18:42.789Z,15.69
2023-03-10T10:19:42.716Z,15.76
2023-03-10T10:20:42.722Z,15.72
2023-03-10T10:21:43.280Z,15.90
2023-03-10T10:22:42.716Z,15.90
2023-03-10T10:23:42.716Z,16.02
2023-03-10T10:24:42.708Z,15.83
2023-03-10T10:25:42.708Z,15.73
2023-03-10T10:26:42.704Z,15.45
2023-03-10T10:27:42.700Z,15.33
2023-03-10T10:28:42.708Z,15.32
2023-03-10T10:29:42.702Z,15.08
2023-03-10T10:30:42.754Z,15.04
2023-03-10T10:31:42.693Z,15.20
2023-03-10T10:32:45.318Z,15.38
2023-03-10T10:33:43.706Z,15.45
2023-03-10T10:34:42.693Z,15.59
2023-03-10T10:35:42.728Z,15.48
2023-03-10T10:36:42.676Z,15.41
2023-03-10T10:37:42.690Z,15.48
2023-03-10T10:38:42.677Z,15.48
2023-03-10T10:39:42.676Z,15.43
2023-03-10T10:40:42.669Z,15.29
2023-03-10T10:41:42.668Z,15.25
2023-03-10T10:42:42.658Z,15.25
2023-03-10T10:43:42.663Z,15.08
2023-03-10T10:44:42.683Z,14.93
2023-03-10T10:45:42.718Z,14.87
2023-03-10T10:46:42.654Z,14.97
2023-03-10T10:47:42.657Z,15.08
2023-03-10T10:48:42.644Z,15.17
2023-03-10T10:49:42.667Z,15.22
2023-03-10T10:50:42.646Z,15.11
2023-03-10T10:51:42.640Z,14.95
2023-03-10T10:52:42.642Z,14.92
2023-03-10T10:53:42.634Z,14.92
2023-03-10T10:54:42.626Z,14.95
2023-03-10T10:55:42.632Z,14.92
2023-03-10T10:56:42.623Z,14.79
2023-03-10T10:57:42.621Z,14.71
2023-03-10T10:58:42.616Z,14.74
2023-03-10T10:59:42.605Z,14.70
2023-03-10T11:00:42.628Z,14.77
2023-03-10T11:01:42.647Z,14.74
2023-03-10T11:02:42.689Z,14.73
2023-03-10T11:03:42.604Z,14.66
2023-03-10T11:04:42.597Z,14.53
2023-03-10T11:05:42.595Z,14.33
2023-03-10T11:06:42.583Z,14.51
2023-03-10T11:07:42.590Z,14.33
2023-03-10T11:08:42.597Z,14.36
2023-03-10T11:09:42.599Z,14.28
2023-03-10T11:10:42.577Z,14.26
2023-03-10T11:11:42.566Z,14.09
2023-03-10T11:12:42.568Z,14.05
2023-03-10T11:13:42.556Z,14.09
2023-03-10T11:14:42.560Z,14.12
2023-03-10T11:15:42.628Z,14.08
2023-03-10T11:16:42.556Z,14.05
2023-03-10T11:17:42.556Z,14.04
2023-03-10T11:18:42.538Z,14.00
2023-03-10T11:19:42.535Z,14.00
2023-03-10T11:20:42.534Z,13.96
2023-03-10T11:21:42.518Z,13.94
2023-03-10T11:22:42.525Z,13.96
2023-03-10T11:23:42.535Z,14.00
2023-03-10T11:24:42.528Z,13.96
2023-03-10T11:25:42.515Z,13.97
2023-03-10T11:26:42.528Z,13.97
2023-03-10T11:27:42.496Z,13.83
2023-03-10T11:28:42.504Z,13.80
2023-03-10T11:29:42.580Z,13.63
2023-03-10T11:30:42.530Z,13.61
2023-03-10T11:31:42.481Z,13.57
2023-03-10T11:32:42.529Z,13.64
2023-03-10T11:33:42.503Z,13.61
2023-03-10T11:34:42.461Z,13.51
2023-03-10T11:35:42.485Z,13.47
2023-03-10T11:36:55.079Z,13.49
2023-03-10T11:37:42.462Z,13.40
2023-03-10T11:38:42.536Z,13.45
2023-03-10T11:39:42.473Z,13.35
2023-03-10T11:40:42.426Z,13.36
2023-03-10T11:41:42.444Z,13.36
2023-03-10T11:42:42.417Z,13.35
2023-03-10T11:43:42.418Z,13.32
2023-03-10T11:44:42.443Z,13.24
2023-03-10T11:45:42.400Z,13.11
2023-03-10T11:46:42.427Z,13.17
2023-03-10T11:47:42.396Z,13.05
2023-03-10T11:48:42.386Z,12.99
2023-03-10T11:49:42.379Z,12.95
2023-03-10T11:50:42.385Z,12.91
2023-03-10T11:51:42.369Z,13.01
2023-03-10T11:52:42.370Z,12.93
2023-03-10T11:53:42.356Z,12.87
2023-03-10T11:54:42.388Z,12.93
2023-03-10T11:55:42.346Z,12.81
2023-03-10T11:56:42.352Z,12.84
2023-03-10T11:57:42.342Z,12.76
2023-03-10T11:58:42.327Z,12.76
2023-03-10T11:59:42.320Z,12.66
2023-03-10T12:00:42.318Z,12.62
2023-03-10T12:01:42.318Z,12.66
2023-03-10T12:02:42.326Z,12.66
2023-03-10T12:03:42.471Z,12.68
2023-03-10T12:04:42.292Z,12.47
2023-03-10T12:05:42.327Z,12.58
2023-03-10T12:06:42.282Z,12.46
2023-03-10T12:07:42.290Z,12.53
2023-03-10T12:08:42.308Z,12.61
2023-03-10T12:09:42.409Z,12.54
2023-03-10T12:10:42.295Z,12.44
2023-03-10T12:11:42.287Z,12.46
2023-03-10T12:12:42.254Z,12.41
2023-03-10T12:13:42.247Z,12.41
2023-03-10T12:14:42.258Z,12.38
2023-03-10T12:15:42.306Z,12.29
2023-03-10T12:16:42.228Z,12.41
2023-03-10T12:17:42.223Z,12.32
2023-03-10T12:18:42.221Z,12.43
2023-03-10T12:19:42.214Z,12.36
2023-03-10T12:20:42.206Z,12.41
2023-03-10T12:21:42.215Z,12.46
2023-03-10T12:22:42.208Z,12.47
2023-03-10T12:23:42.245Z,12.43
2023-03-10T12:24:42.182Z,12.44
2023-03-10T12:25:42.197Z,12.43
2023-03-10T12:26:42.172Z,12.41
2023-03-10T12:27:42.172Z,12.36
2023-03-10T12:28:42.158Z,12.36
2023-03-10T12:29:42.160Z,12.38
2023-03-10T12:30:42.145Z,12.35
2023-03-10T12:31:42.191Z,12.35
2023-03-10T12:32:42.228Z,12.40
2023-03-10T12:33:42.170Z,12.36
2023-03-10T12:34:42.133Z,12.40
2023-03-10T12:35:42.213Z,12.43
2023-03-10T12:36:42.124Z,12.47
2023-03-10T12:37:42.109Z,12.53
2023-03-10T12:38:42.100Z,12.51
2023-03-10T12:39:42.110Z,12.50
2023-03-10T12:40:42.093Z,12.48
2023-03-10T12:41:42.082Z,12.46
2023-03-10T12:42:42.084Z,12.38
2023-03-10T12:43:42.071Z,12.40
2023-03-10T12:44:42.063Z,12.50
2023-03-10T12:45:42.074Z,12.43
2023-03-10T12:46:42.122Z,12.44
2023-03-10T12:47:42.046Z,12.43
2023-03-10T12:48:42.041Z,12.50
2023-03-10T12:49:42.038Z,12.50
2023-03-10T12:50:42.045Z,12.41
2023-03-10T12:51:42.038Z,12.58
2023-03-10T12:52:42.033Z,12.51